sensor_id;sensor_type;location;lat;lon;timestamp;pressure;altitude;pressure_sealevel;temperature;humidity
79138;BME280;68544;45.566;10.238;2023-04-03T00:02:12;99546.09;;;11.89;58.25
79138;BME280;68544;45.566;10.238;2023-04-03T00:04:37;99546.28;;;11.81;58.96
79138;BME280;68544;45.566;10.238;2023-04-03T00:07:03;99543.59;;;11.81;59.06
79138;BME280;68544;45.566;10.238;2023-04-03T00:09:28;99537.72;;;11.64;59.62
79138;BME280;68544;45.566;10.238;2023-04-03T00:11:53;99533.94;;;11.59;59.40
79138;BME280;68544;45.566;10.238;2023-04-03T00:14:19;99529.34;;;11.53;59.91
79138;BME280;68544;45.566;10.238;2023-04-03T00:16:44;99533.75;;;11.54;59.44
79138;BME280;68544;45.566;10.238;2023-04-03T00:19:10;99535.00;;;11.58;59.44
79138;BME280;68544;45.566;10.238;2023-04-03T00:21:37;99541.09;;;11.73;58.74
79138;BME280;68544;45.566;10.238;2023-04-03T00:24:02;99526.03;;;11.51;59.37
79138;BME280;68544;45.566;10.238;2023-04-03T00:26:28;99526.44;;;11.48;59.17
79138;BME280;68544;45.566;10.238;2023-04-03T00:28:53;99526.44;;;11.48;58.78
79138;BME280;68544;45.566;10.238;2023-04-03T00:31:18;99518.97;;;11.50;58.51
79138;BME280;68544;45.566;10.238;2023-04-03T00:33:44;99519.56;;;11.45;58.52
79138;BME280;68544;45.566;10.238;2023-04-03T00:36:10;99520.22;;;11.60;58.04
79138;BME280;68544;45.566;10.238;2023-04-03T00:38:36;99513.97;;;11.47;57.95
79138;BME280;68544;45.566;10.238;2023-04-03T00:41:01;99514.81;;;11.54;57.61
79138;BME280;68544;45.566;10.238;2023-04-03T00:43:27;99508.53;;;11.40;58.17
79138;BME280;68544;45.566;10.238;2023-04-03T00:45:54;99516.00;;;11.32;58.60
79138;BME280;68544;45.566;10.238;2023-04-03T00:48:27;99520.00;;;11.49;58.05
79138;BME280;68544;45.566;10.238;2023-04-03T00:50:53;99497.50;;;11.29;58.86
79138;BME280;68544;45.566;10.238;2023-04-03T00:53:23;99509.38;;;11.41;58.54
79138;BME280;68544;45.566;10.238;2023-04-03T00:55:51;99509.38;;;11.47;58.45
79138;BME280;68544;45.566;10.238;2023-04-03T00:58:19;99511.44;;;11.39;58.31
79138;BME280;68544;45.566;10.238;2023-04-03T01:00:49;99506.47;;;11.42;57.90
79138;BME280;68544;45.566;10.238;2023-04-03T01:03:16;99506.88;;;11.33;58.59
79138;BME280;68544;45.566;10.238;2023-04-03T01:05:42;99511.84;;;11.36;58.50
79138;BME280;68544;45.566;10.238;2023-04-03T01:08:07;99509.34;;;11.28;58.36
79138;BME280;68544;45.566;10.238;2023-04-03T01:10:32;99508.91;;;11.24;58.34
79138;BME280;68544;45.566;10.238;2023-04-03T01:12:59;99504.78;;;11.28;58.39
79138;BME280;68544;45.566;10.238;2023-04-03T01:15:26;99508.91;;;11.18;58.53
79138;BME280;68544;45.566;10.238;2023-04-03T01:17:55;99491.81;;;11.10;58.63
79138;BME280;68544;45.566;10.238;2023-04-03T01:25:35;99488.13;;;11.25;57.15
79138;BME280;68544;45.566;10.238;2023-04-03T01:28:03;99489.59;;;11.27;57.07
79138;BME280;68544;45.566;10.238;2023-04-03T01:30:33;99480.38;;;11.08;57.86
79138;BME280;68544;45.566;10.238;2023-04-03T01:32:59;99482.31;;;11.28;57.06
79138;BME280;68544;45.566;10.238;2023-04-03T01:35:24;99491.69;;;11.45;56.61
79138;BME280;68544;45.566;10.238;2023-04-03T01:37:50;99486.84;;;11.07;58.19
79138;BME280;68544;45.566;10.238;2023-04-03T01:40:15;99492.44;;;10.99;58.67
79138;BME280;68544;45.566;10.238;2023-04-03T01:42:41;99487.63;;;10.95;58.95
79138;BME280;68544;45.566;10.238;2023-04-03T01:45:06;99484.88;;;10.82;59.40
79138;BME280;68544;45.566;10.238;2023-04-03T01:47:32;99484.91;;;10.88;59.05
79138;BME280;68544;45.566;10.238;2023-04-03T01:49:57;99479.56;;;11.01;58.30
79138;BME280;68544;45.566;10.238;2023-04-03T01:52:22;99481.81;;;11.04;58.05
79138;BME280;68544;45.566;10.238;2023-04-03T01:54:48;99473.94;;;11.03;58.15
79138;BME280;68544;45.566;10.238;2023-04-03T01:57:13;99481.44;;;11.07;58.42
79138;BME280;68544;45.566;10.238;2023-04-03T01:59:40;99490.25;;;10.75;58.94
79138;BME280;68544;45.566;10.238;2023-04-03T02:02:05;99484.31;;;10.99;58.35
79138;BME280;68544;45.566;10.238;2023-04-03T02:04:31;99477.03;;;11.00;58.35
79138;BME280;68544;45.566;10.238;2023-04-03T02:06:56;99479.72;;;10.93;58.63
79138;BME280;68544;45.566;10.238;2023-04-03T02:09:21;99472.66;;;10.92;58.60
79138;BME280;68544;45.566;10.238;2023-04-03T02:11:46;99480.16;;;10.97;58.36
79138;BME280;68544;45.566;10.238;2023-04-03T02:14:12;99479.72;;;10.93;58.39
79138;BME280;68544;45.566;10.238;2023-04-03T02:16:37;99465.34;;;10.80;58.94
79138;BME280;68544;45.566;10.238;2023-04-03T02:19:03;99465.97;;;10.82;58.64
79138;BME280;68544;45.566;10.238;2023-04-03T02:21:28;99467.25;;;10.92;58.09
79138;BME280;68544;45.566;10.238;2023-04-03T02:23:53;99460.53;;;10.75;57.81
79138;BME280;68544;45.566;10.238;2023-04-03T02:26:19;99465.75;;;10.83;56.88
79138;BME280;68544;45.566;10.238;2023-04-03T02:28:45;99457.31;;;10.99;56.08
79138;BME280;68544;45.566;10.238;2023-04-03T02:31:10;99459.38;;;10.97;55.83
79138;BME280;68544;45.566;10.238;2023-04-03T02:33:36;99456.88;;;11.02;55.70
79138;BME280;68544;45.566;10.238;2023-04-03T02:36:06;99459.75;;;10.88;55.93
79138;BME280;68544;45.566;10.238;2023-04-03T02:38:31;99463.47;;;10.80;56.23
79138;BME280;68544;45.566;10.238;2023-04-03T02:41:01;99462.91;;;10.91;55.44
79138;BME280;68544;45.566;10.238;2023-04-03T02:43:27;99454.59;;;10.99;55.50
79138;BME280;68544;45.566;10.238;2023-04-03T02:45:52;99461.91;;;11.12;55.25
79138;BME280;68544;45.566;10.238;2023-04-03T02:48:18;99468.75;;;11.01;55.70
79138;BME280;68544;45.566;10.238;2023-04-03T02:50:43;99461.78;;;10.79;57.04
79138;BME280;68544;45.566;10.238;2023-04-03T02:53:08;99466.34;;;10.72;57.42
79138;BME280;68544;45.566;10.238;2023-04-03T02:55:34;99468.44;;;10.83;56.31
79138;BME280;68544;45.566;10.238;2023-04-03T02:57:59;99460.97;;;10.85;55.73
79138;BME280;68544;45.566;10.238;2023-04-03T03:00:24;99464.97;;;10.96;55.22
79138;BME280;68544;45.566;10.238;2023-04-03T03:02:50;99461.59;;;10.74;56.08
79138;BME280;68544;45.566;10.238;2023-04-03T03:05:15;99469.91;;;10.79;56.14
79138;BME280;68544;45.566;10.238;2023-04-03T03:07:40;99460.78;;;10.80;55.83
79138;BME280;68544;45.566;10.238;2023-04-03T03:10:06;99465.53;;;10.78;56.40
79138;BME280;68544;45.566;10.238;2023-04-03T03:12:31;99466.69;;;10.56;57.00
79138;BME280;68544;45.566;10.238;2023-04-03T03:14:57;99466.75;;;10.69;56.72
79138;BME280;68544;45.566;10.238;2023-04-03T03:17:22;99463.81;;;10.64;57.15
79138;BME280;68544;45.566;10.238;2023-04-03T03:19:47;99467.00;;;10.81;56.49
79138;BME280;68544;45.566;10.238;2023-04-03T03:22:12;99466.31;;;10.66;56.80
79138;BME280;68544;45.566;10.238;2023-04-03T03:24:38;99463.13;;;10.49;57.94
79138;BME280;68544;45.566;10.238;2023-04-03T03:27:03;99460.81;;;10.46;57.85
79138;BME280;68544;45.566;10.238;2023-04-03T03:29:28;99459.66;;;10.62;57.42
79138;BME280;68544;45.566;10.238;2023-04-03T03:31:54;99453.88;;;10.71;57.13
79138;BME280;68544;45.566;10.238;2023-04-03T03:34:19;99457.72;;;10.49;57.05
79138;BME280;68544;45.566;10.238;2023-04-03T03:36:45;99457.09;;;10.47;56.87
79138;BME280;68544;45.566;10.238;2023-04-03T03:39:10;99456.75;;;10.63;56.54
79138;BME280;68544;45.566;10.238;2023-04-03T03:41:36;99453.66;;;10.73;55.96
79138;BME280;68544;45.566;10.238;2023-04-03T03:44:01;99457.97;;;10.61;56.23
79138;BME280;68544;45.566;10.238;2023-04-03T03:46:26;99462.91;;;10.51;56.29
79138;BME280;68544;45.566;10.238;2023-04-03T03:48:51;99464.44;;;10.25;58.01
79138;BME280;68544;45.566;10.238;2023-04-03T03:51:17;99470.69;;;9.77;59.29
79138;BME280;68544;45.566;10.238;2023-04-03T03:53:42;99463.88;;;10.09;58.34
79138;BME280;68544;45.566;10.238;2023-04-03T03:56:07;99473.72;;;10.16;58.19
79138;BME280;68544;45.566;10.238;2023-04-03T03:58:33;99475.06;;;10.33;57.32
79138;BME280;68544;45.566;10.238;2023-04-03T04:01:06;99475.66;;;10.29;57.37
79138;BME280;68544;45.566;10.238;2023-04-03T04:03:31;99474.72;;;10.50;56.12
79138;BME280;68544;45.566;10.238;2023-04-03T04:05:57;99477.34;;;10.30;56.88
79138;BME280;68544;45.566;10.238;2023-04-03T04:08:23;99481.84;;;10.23;56.90
79138;BME280;68544;45.566;10.238;2023-04-03T04:10:48;99467.41;;;10.37;56.58
79138;BME280;68544;45.566;10.238;2023-04-03T04:13:13;99477.78;;;10.33;56.47
79138;BME280;68544;45.566;10.238;2023-04-03T04:15:39;99475.81;;;10.21;56.72
79138;BME280;68544;45.566;10.238;2023-04-03T04:18:05;99476.75;;;10.35;56.06
79138;BME280;68544;45.566;10.238;2023-04-03T04:20:31;99476.97;;;10.40;55.66
79138;BME280;68544;45.566;10.238;2023-04-03T04:22:56;99474.72;;;10.43;55.78
79138;BME280;68544;45.566;10.238;2023-04-03T04:25:21;99480.44;;;10.27;56.19
79138;BME280;68544;45.566;10.238;2023-04-03T04:27:46;99472.78;;;10.37;55.53
79138;BME280;68544;45.566;10.238;2023-04-03T04:30:12;99469.88;;;10.32;55.42
79138;BME280;68544;45.566;10.238;2023-04-03T04:32:38;99483.16;;;10.33;55.96
79138;BME280;68544;45.566;10.238;2023-04-03T04:35:03;99477.72;;;10.27;56.28
79138;BME280;68544;45.566;10.238;2023-04-03T04:37:29;99482.41;;;10.12;56.99
79138;BME280;68544;45.566;10.238;2023-04-03T04:39:55;99481.59;;;10.18;56.32
79138;BME280;68544;45.566;10.238;2023-04-03T04:42:20;99471.47;;;10.20;56.36
79138;BME280;68544;45.566;10.238;2023-04-03T04:44:45;99482.66;;;10.17;56.66
79138;BME280;68544;45.566;10.238;2023-04-03T04:47:11;99478.53;;;10.21;56.09
79138;BME280;68544;45.566;10.238;2023-04-03T04:49:36;99483.44;;;10.11;56.60
79138;BME280;68544;45.566;10.238;2023-04-03T04:52:01;99486.47;;;10.29;55.95
79138;BME280;68544;45.566;10.238;2023-04-03T04:54:27;99470.59;;;10.13;55.64
79138;BME280;68544;45.566;10.238;2023-04-03T04:56:52;99485.59;;;10.22;55.40
79138;BME280;68544;45.566;10.238;2023-04-03T04:59:17;99488.91;;;9.96;57.12
79138;BME280;68544;45.566;10.238;2023-04-03T05:01:43;99492.22;;;10.19;56.56
79138;BME280;68544;45.566;10.238;2023-04-03T05:04:08;99490.16;;;10.21;56.19
79138;BME280;68544;45.566;10.238;2023-04-03T05:06:34;99488.84;;;10.11;57.09
79138;BME280;68544;45.566;10.238;2023-04-03T05:09:00;99484.84;;;10.07;56.65
79138;BME280;68544;45.566;10.238;2023-04-03T05:11:25;99487.53;;;10.07;56.78
79138;BME280;68544;45.566;10.238;2023-04-03T05:13:51;99494.28;;;10.17;56.33
79138;BME280;68544;45.566;10.238;2023-04-03T05:16:16;99500.53;;;9.97;56.83
79138;BME280;68544;45.566;10.238;2023-04-03T05:18:41;99506.19;;;9.60;58.63
79138;BME280;68544;45.566;10.238;2023-04-03T05:21:07;99499.59;;;9.62;58.63
79138;BME280;68544;45.566;10.238;2023-04-03T05:23:32;99502.28;;;9.83;57.65
79138;BME280;68544;45.566;10.238;2023-04-03T05:25:58;99496.03;;;9.83;57.53
79138;BME280;68544;45.566;10.238;2023-04-03T05:28:23;99508.81;;;9.74;58.14
79138;BME280;68544;45.566;10.238;2023-04-03T05:30:54;99499.53;;;9.77;57.71
79138;BME280;68544;45.566;10.238;2023-04-03T05:33:20;99506.59;;;9.78;57.80
79138;BME280;68544;45.566;10.238;2023-04-03T05:35:45;99515.00;;;9.68;58.19
79138;BME280;68544;45.566;10.238;2023-04-03T05:38:11;99507.34;;;9.72;58.07
79138;BME280;68544;45.566;10.238;2023-04-03T05:40:37;99520.09;;;9.57;58.94
79138;BME280;68544;45.566;10.238;2023-04-03T05:43:02;99511.94;;;9.50;58.22
79138;BME280;68544;45.566;10.238;2023-04-03T05:45:28;99524.19;;;9.74;57.73
79138;BME280;68544;45.566;10.238;2023-04-03T05:47:53;99522.94;;;9.76;58.28
79138;BME280;68544;45.566;10.238;2023-04-03T05:50:18;99525.38;;;9.92;57.64
79138;BME280;68544;45.566;10.238;2023-04-03T05:52:45;99529.41;;;10.03;57.60
79138;BME280;68544;45.566;10.238;2023-04-03T05:55:12;99530.50;;;10.36;55.41
79138;BME280;68544;45.566;10.238;2023-04-03T05:57:37;99532.16;;;10.37;56.09
79138;BME280;68544;45.566;10.238;2023-04-03T06:00:07;99532.41;;;10.76;54.59
79138;BME280;68544;45.566;10.238;2023-04-03T06:02:35;99533.22;;;10.70;54.34
79138;BME280;68544;45.566;10.238;2023-04-03T06:05:00;99531.44;;;10.90;53.65
79138;BME280;68544;45.566;10.238;2023-04-03T06:07:26;99528.22;;;11.15;52.46
79138;BME280;68544;45.566;10.238;2023-04-03T06:09:54;99523.50;;;11.43;52.14
79138;BME280;68544;45.566;10.238;2023-04-03T06:12:21;99528.72;;;11.38;52.31
79138;BME280;68544;45.566;10.238;2023-04-03T06:14:46;99521.41;;;11.32;52.58
79138;BME280;68544;45.566;10.238;2023-04-03T06:17:12;99530.22;;;11.60;51.87
79138;BME280;68544;45.566;10.238;2023-04-03T06:19:38;99525.06;;;11.78;50.40
79138;BME280;68544;45.566;10.238;2023-04-03T06:22:03;99523.59;;;11.88;50.42
79138;BME280;68544;45.566;10.238;2023-04-03T06:24:30;99526.94;;;11.97;49.32
79138;BME280;68544;45.566;10.238;2023-04-03T06:26:56;99529.66;;;12.23;48.55
79138;BME280;68544;45.566;10.238;2023-04-03T06:29:22;99532.59;;;12.22;48.19
79138;BME280;68544;45.566;10.238;2023-04-03T06:31:48;99539.44;;;12.24;48.22
79138;BME280;68544;45.566;10.238;2023-04-03T06:34:14;99536.31;;;12.40;47.68
79138;BME280;68544;45.566;10.238;2023-04-03T06:36:41;99531.97;;;12.07;48.47
79138;BME280;68544;45.566;10.238;2023-04-03T06:39:06;99530.91;;;12.27;48.62
79138;BME280;68544;45.566;10.238;2023-04-03T06:41:33;99545.19;;;12.74;47.50
79138;BME280;68544;45.566;10.238;2023-04-03T06:43:58;99538.59;;;13.27;46.45
79138;BME280;68544;45.566;10.238;2023-04-03T06:46:25;99547.03;;;13.43;46.17
79138;BME280;68544;45.566;10.238;2023-04-03T06:48:51;99538.34;;;13.97;44.61
79138;BME280;68544;45.566;10.238;2023-04-03T06:51:28;99543.06;;;14.08;44.23
79138;BME280;68544;45.566;10.238;2023-04-03T06:53:57;99540.25;;;14.21;43.43
79138;BME280;68544;45.566;10.238;2023-04-03T06:56:22;99533.06;;;14.34;42.78
79138;BME280;68544;45.566;10.238;2023-04-03T06:58:48;99540.91;;;14.84;41.45
79138;BME280;68544;45.566;10.238;2023-04-03T07:01:16;99539.31;;;14.95;40.70
79138;BME280;68544;45.566;10.238;2023-04-03T07:03:43;99538.06;;;15.27;39.92
79138;BME280;68544;45.566;10.238;2023-04-03T07:06:10;99546.88;;;15.59;38.82
79138;BME280;68544;45.566;10.238;2023-04-03T07:08:36;99542.25;;;15.48;38.77
79138;BME280;68544;45.566;10.238;2023-04-03T07:11:02;99543.09;;;15.90;38.48
79138;BME280;68544;45.566;10.238;2023-04-03T07:13:27;99544.00;;;16.25;37.71
79138;BME280;68544;45.566;10.238;2023-04-03T07:15:53;99544.50;;;16.68;36.67
79138;BME280;68544;45.566;10.238;2023-04-03T07:18:19;99542.03;;;16.67;37.17
79138;BME280;68544;45.566;10.238;2023-04-03T07:20:45;99547.69;;;16.77;37.74
79138;BME280;68544;45.566;10.238;2023-04-03T07:23:11;99537.97;;;16.92;37.55
79138;BME280;68544;45.566;10.238;2023-04-03T07:25:37;99531.84;;;17.25;37.49
79138;BME280;68544;45.566;10.238;2023-04-03T07:28:02;99526.81;;;17.33;37.39
79138;BME280;68544;45.566;10.238;2023-04-03T07:30:28;99530.34;;;17.57;36.74
79138;BME280;68544;45.566;10.238;2023-04-03T07:32:54;99530.34;;;17.57;36.86
79138;BME280;68544;45.566;10.238;2023-04-03T07:35:19;99546.19;;;17.72;36.62
79138;BME280;68544;45.566;10.238;2023-04-03T07:37:44;99530.97;;;17.76;36.01
79138;BME280;68544;45.566;10.238;2023-04-03T07:40:10;99534.16;;;18.34;34.27
79138;BME280;68544;45.566;10.238;2023-04-03T07:42:35;99531.50;;;18.39;34.94
79138;BME280;68544;45.566;10.238;2023-04-03T07:45:03;99536.00;;;18.45;34.32
79138;BME280;68544;45.566;10.238;2023-04-03T07:47:28;99534.38;;;18.82;33.46
79138;BME280;68544;45.566;10.238;2023-04-03T07:49:54;99533.63;;;18.87;32.80
79138;BME280;68544;45.566;10.238;2023-04-03T07:52:19;99523.34;;;18.94;32.65
79138;BME280;68544;45.566;10.238;2023-04-03T07:54:44;99533.66;;;18.70;34.11
79138;BME280;68544;45.566;10.238;2023-04-03T07:57:10;99527.47;;;18.97;32.58
79138;BME280;68544;45.566;10.238;2023-04-03T07:59:35;99519.47;;;19.12;32.19
79138;BME280;68544;45.566;10.238;2023-04-03T08:02:01;99526.47;;;19.24;32.26
79138;BME280;68544;45.566;10.238;2023-04-03T08:04:26;99522.63;;;19.95;30.98
79138;BME280;68544;45.566;10.238;2023-04-03T08:06:52;99524.63;;;20.31;29.81
79138;BME280;68544;45.566;10.238;2023-04-03T08:09:18;99522.28;;;20.50;29.32
79138;BME280;68544;45.566;10.238;2023-04-03T08:11:44;99521.28;;;21.03;29.25
79138;BME280;68544;45.566;10.238;2023-04-03T08:14:10;99525.59;;;20.94;28.93
79138;BME280;68544;45.566;10.238;2023-04-03T08:16:42;99515.88;;;21.23;28.41
79138;BME280;68544;45.566;10.238;2023-04-03T08:19:07;99521.84;;;21.10;29.11
79138;BME280;68544;45.566;10.238;2023-04-03T08:21:33;99508.22;;;21.30;29.31
79138;BME280;68544;45.566;10.238;2023-04-03T08:23:58;99512.63;;;21.36;29.01
79138;BME280;68544;45.566;10.238;2023-04-03T08:26:23;99517.06;;;20.90;29.91
79138;BME280;68544;45.566;10.238;2023-04-03T08:28:49;99519.81;;;21.52;30.23
79138;BME280;68544;45.566;10.238;2023-04-03T08:31:17;99514.19;;;22.49;27.63
79138;BME280;68544;45.566;10.238;2023-04-03T08:33:43;99511.81;;;23.27;25.97
79138;BME280;68544;45.566;10.238;2023-04-03T08:36:18;99513.81;;;26.78;18.63
79138;BME280;68544;45.566;10.238;2023-04-03T08:38:44;99507.84;;;29.68;15.33
79138;BME280;68544;45.566;10.238;2023-04-03T08:44:02;99502.25;;;33.00;12.25
79138;BME280;68544;45.566;10.238;2023-04-03T08:46:45;99515.31;;;33.32;11.80
79138;BME280;68544;45.566;10.238;2023-04-03T08:49:30;99501.38;;;34.91;10.50
79138;BME280;68544;45.566;10.238;2023-04-03T08:51:57;99492.25;;;33.35;11.99
79138;BME280;68544;45.566;10.238;2023-04-03T08:54:29;99503.59;;;34.42;11.40
79138;BME280;68544;45.566;10.238;2023-04-03T08:56:57;99507.16;;;33.27;12.45
79138;BME280;68544;45.566;10.238;2023-04-03T08:59:28;99496.31;;;33.13;12.82
79138;BME280;68544;45.566;10.238;2023-04-03T09:01:54;99486.09;;;30.56;15.31
79138;BME280;68544;45.566;10.238;2023-04-03T09:04:21;99499.69;;;27.61;19.07
79138;BME280;68544;45.566;10.238;2023-04-03T09:06:49;99502.94;;;26.35;20.87
79138;BME280;68544;45.566;10.238;2023-04-03T09:09:34;99497.78;;;26.10;21.30
79138;BME280;68544;45.566;10.238;2023-04-03T09:12:18;99504.19;;;25.50;22.28
79138;BME280;68544;45.566;10.238;2023-04-03T09:14:57;99498.72;;;24.69;23.01
79138;BME280;68544;45.566;10.238;2023-04-03T09:22:46;99504.41;;;24.82;23.50
79138;BME280;68544;45.566;10.238;2023-04-03T09:27:36;99472.63;;;33.11;13.62
79138;BME280;68544;45.566;10.238;2023-04-03T09:30:02;99482.41;;;33.05;13.27
79138;BME280;68544;45.566;10.238;2023-04-03T09:32:30;99480.59;;;33.21;13.43
79138;BME280;68544;45.566;10.238;2023-04-03T09:35:04;99472.13;;;34.92;11.81
79138;BME280;68544;45.566;10.238;2023-04-03T09:37:39;99487.16;;;35.46;11.41
79138;BME280;68544;45.566;10.238;2023-04-03T09:42:52;99490.22;;;36.26;10.60
79138;BME280;68544;45.566;10.238;2023-04-03T09:45:36;99477.25;;;35.02;11.75
79138;BME280;68544;45.566;10.238;2023-04-03T09:50:55;99498.09;;;35.83;10.96
79138;BME280;68544;45.566;10.238;2023-04-03T09:53:38;99480.03;;;37.44;9.85
79138;BME280;68544;45.566;10.238;2023-04-03T09:58:51;99465.41;;;37.90;8.89
79138;BME280;68544;45.566;10.238;2023-04-03T10:01:23;99474.66;;;37.87;9.41
79138;BME280;68544;45.566;10.238;2023-04-03T10:06:34;99481.34;;;35.70;10.74
79138;BME280;68544;45.566;10.238;2023-04-03T10:09:05;99475.41;;;35.56;10.84
79138;BME280;68544;45.566;10.238;2023-04-03T10:11:31;99468.22;;;35.94;10.41
79138;BME280;68544;45.566;10.238;2023-04-03T10:13:59;99465.13;;;38.25;8.81
79138;BME280;68544;45.566;10.238;2023-04-03T10:16:34;99467.56;;;37.71;9.15
79138;BME280;68544;45.566;10.238;2023-04-03T10:19:21;99466.63;;;36.12;9.76
79138;BME280;68544;45.566;10.238;2023-04-03T10:22:04;99464.34;;;35.32;10.82
79138;BME280;68544;45.566;10.238;2023-04-03T10:24:51;99455.84;;;36.75;9.72
79138;BME280;68544;45.566;10.238;2023-04-03T10:29:59;99466.81;;;37.48;8.67
79138;BME280;68544;45.566;10.238;2023-04-03T10:35:10;99453.09;;;37.76;8.54
79138;BME280;68544;45.566;10.238;2023-04-03T10:37:50;99449.41;;;35.79;9.86
79138;BME280;68544;45.566;10.238;2023-04-03T10:40:30;99453.44;;;37.97;8.18
79138;BME280;68544;45.566;10.238;2023-04-03T10:45:55;99436.00;;;37.36;8.26
79138;BME280;68544;45.566;10.238;2023-04-03T10:48:40;99430.56;;;34.51;10.58
79138;BME280;68544;45.566;10.238;2023-04-03T10:51:23;99440.84;;;33.79;11.26
79138;BME280;68544;45.566;10.238;2023-04-03T11:01:53;99423.75;;;35.80;9.51
79138;BME280;68544;45.566;10.238;2023-04-03T11:04:21;99421.47;;;35.86;9.22
79138;BME280;68544;45.566;10.238;2023-04-03T11:07:02;99402.09;;;35.46;9.66
79138;BME280;68544;45.566;10.238;2023-04-03T11:09:32;99397.88;;;36.70;8.82
79138;BME280;68544;45.566;10.238;2023-04-03T11:15:18;99398.72;;;36.52;8.98
79138;BME280;68544;45.566;10.238;2023-04-03T11:17:54;99396.88;;;36.40;8.86
79138;BME280;68544;45.566;10.238;2023-04-03T11:20:32;99387.50;;;35.40;9.91
79138;BME280;68544;45.566;10.238;2023-04-03T11:23:32;99404.88;;;36.57;8.90
79138;BME280;68544;45.566;10.238;2023-04-03T11:26:10;99387.06;;;36.95;8.39
79138;BME280;68544;45.566;10.238;2023-04-03T11:28:37;99382.94;;;35.86;9.28
79138;BME280;68544;45.566;10.238;2023-04-03T11:36:40;99381.06;;;36.51;8.90
79138;BME280;68544;45.566;10.238;2023-04-03T11:39:19;99374.38;;;33.92;11.00
79138;BME280;68544;45.566;10.238;2023-04-03T11:41:47;99380.34;;;35.78;9.48
79138;BME280;68544;45.566;10.238;2023-04-03T11:44:35;99378.28;;;36.77;8.88
79138;BME280;68544;45.566;10.238;2023-04-03T11:47:02;99375.69;;;36.04;9.49
79138;BME280;68544;45.566;10.238;2023-04-03T12:13:39;99357.63;;;25.50;21.26
79138;BME280;68544;45.566;10.238;2023-04-03T12:16:06;99347.91;;;25.15;21.37
79138;BME280;68544;45.566;10.238;2023-04-03T12:18:53;99343.63;;;24.85;21.99
79138;BME280;68544;45.566;10.238;2023-04-03T12:26:36;99336.31;;;21.84;26.53
79138;BME280;68544;45.566;10.238;2023-04-03T12:34:43;99335.75;;;21.97;26.45
79138;BME280;68544;45.566;10.238;2023-04-03T12:43:06;99349.22;;;21.59;26.98
79138;BME280;68544;45.566;10.238;2023-04-03T12:51:34;99335.66;;;21.02;28.01
79138;BME280;68544;45.566;10.238;2023-04-03T12:54:18;99332.22;;;20.55;29.01
79138;BME280;68544;45.566;10.238;2023-04-03T12:56:45;99337.13;;;21.50;28.32
79138;BME280;68544;45.566;10.238;2023-04-03T13:01:38;99348.06;;;21.14;28.45
79138;BME280;68544;45.566;10.238;2023-04-03T13:04:04;99348.94;;;20.48;29.19
79138;BME280;68544;45.566;10.238;2023-04-03T13:06:43;99344.84;;;20.56;28.81
79138;BME280;68544;45.566;10.238;2023-04-03T13:09:26;99343.25;;;20.75;29.10
79138;BME280;68544;45.566;10.238;2023-04-03T13:12:09;99342.03;;;20.40;29.41
79138;BME280;68544;45.566;10.238;2023-04-03T13:14:37;99350.34;;;19.72;31.15
79138;BME280;68544;45.566;10.238;2023-04-03T13:17:15;99330.13;;;19.78;30.90
79138;BME280;68544;45.566;10.238;2023-04-03T13:19:42;99332.69;;;20.36;29.75
79138;BME280;68544;45.566;10.238;2023-04-03T13:22:33;99330.56;;;20.07;29.94
79138;BME280;68544;45.566;10.238;2023-04-03T13:25:06;99311.38;;;20.02;30.77
79138;BME280;68544;45.566;10.238;2023-04-03T13:27:33;99301.25;;;19.65;31.29
79138;BME280;68544;45.566;10.238;2023-04-03T13:30:01;99297.31;;;19.20;32.36
79138;BME280;68544;45.566;10.238;2023-04-03T13:32:29;99272.06;;;18.59;33.02
79138;BME280;68544;45.566;10.238;2023-04-03T13:34:55;99269.56;;;19.38;31.91
79138;BME280;68544;45.566;10.238;2023-04-03T13:37:33;99301.06;;;19.40;31.96
79138;BME280;68544;45.566;10.238;2023-04-03T13:40:10;99308.09;;;19.63;31.08
79138;BME280;68544;45.566;10.238;2023-04-03T13:42:41;99319.03;;;19.31;31.64
79138;BME280;68544;45.566;10.238;2023-04-03T13:47:42;99327.38;;;18.88;32.68
79138;BME280;68544;45.566;10.238;2023-04-03T13:55:26;99317.25;;;19.15;32.25
79138;BME280;68544;45.566;10.238;2023-04-03T13:57:57;99309.41;;;19.29;32.36
79138;BME280;68544;45.566;10.238;2023-04-03T14:00:51;99310.34;;;18.59;33.56
79138;BME280;68544;45.566;10.238;2023-04-03T14:06:14;99308.59;;;18.10;35.51
79138;BME280;68544;45.566;10.238;2023-04-03T14:08:41;99322.84;;;18.12;35.04
79138;BME280;68544;45.566;10.238;2023-04-03T14:11:08;99319.91;;;17.97;35.71
79138;BME280;68544;45.566;10.238;2023-04-03T14:13:36;99321.78;;;17.75;36.28
79138;BME280;68544;45.566;10.238;2023-04-03T14:16:02;99328.38;;;17.46;36.71
79138;BME280;68544;45.566;10.238;2023-04-03T14:18:28;99334.22;;;17.21;36.99
79138;BME280;68544;45.566;10.238;2023-04-03T14:20:53;99318.78;;;17.43;36.42
79138;BME280;68544;45.566;10.238;2023-04-03T14:23:18;99328.38;;;17.46;36.76
79138;BME280;68544;45.566;10.238;2023-04-03T14:25:44;99335.63;;;17.23;37.34
79138;BME280;68544;45.566;10.238;2023-04-03T14:28:16;99320.38;;;16.94;37.44
79138;BME280;68544;45.566;10.238;2023-04-03T14:30:41;99326.50;;;17.01;37.38
79138;BME280;68544;45.566;10.238;2023-04-03T14:33:13;99306.69;;;17.22;37.38
79138;BME280;68544;45.566;10.238;2023-04-03T14:35:38;99300.31;;;16.72;38.61
79138;BME280;68544;45.566;10.238;2023-04-03T14:38:12;99296.44;;;17.29;37.56
79138;BME280;68544;45.566;10.238;2023-04-03T14:40:45;99307.09;;;16.70;38.29
79138;BME280;68544;45.566;10.238;2023-04-03T14:43:12;99294.84;;;16.72;38.30
79138;BME280;68544;45.566;10.238;2023-04-03T14:45:38;99296.31;;;16.91;37.98
79138;BME280;68544;45.566;10.238;2023-04-03T14:48:04;99305.97;;;16.82;37.84